Time,TemperatureF,DewpointF,PressureIn,WindDirection,WindDirectionDegrees,WindSpeedMPH,WindSpeedGustMPH,Humidity,HourlyPrecipIn,Conditions,Clouds,dailyrainin,SoftwareType,DateUTC
2013-12-13 00:10:00,11.5,5.0,30.41,SW,217,3.0,11.0,75,0.00,,,0.00,weatherlink.com 1.10,2013-12-13 05:10:00,
2013-12-13 00:25:00,11.8,5.0,30.41,ESE,113,4.0,9.0,75,0.00,,,0.00,weatherlink.com 1.10,2013-12-13 05:25:00,
2013-12-13 00:40:00,11.9,6.0,30.40,SSE,148,3.0,7.0,76,0.00,,,0.00,weatherlink.com 1.10,2013-12-13 05:40:00,
2013-12-13 00:55:00,12.2,6.0,30.40,SW,219,1.0,6.0,76,0.00,,,0.00,weatherlink.com 1.10,2013-12-13 05:55:00,
2013-12-13 01:10:00,12.5,6.0,30.39,SE,131,4.0,8.0,76,0.00,,,0.00,weatherlink.com 1.10,2013-12-13 06:10:00,
2013-12-13 01:25:00,12.8,7.0,30.39,ENE,60,4.0,9.0,76,0.00,,,0.00,weatherlink.com 1.10,2013-12-13 06:25:00,
2013-12-13 01:40:00,13.1,7.0,30.39,SSW,207,4.0,9.0,75,0.00,,,0.00,weatherlink.com 1.10,2013-12-13 06:40:00,
2013-12-13 01:55:00,13.4,7.0,30.39,SSW,211,2.0,8.0,75,0.00,,,0.00,weatherlink.com 1.10,2013-12-13 06:55:00,
2013-12-13 02:10:00,13.6,7.0,30.39,SSE,158,4.0,10.0,75,0.00,,,0.00,weatherlink.com 1.10,2013-12-13 07:10:00,
2013-12-13 02:25:00,13.9,7.0,30.39,East,86,5.0,10.0,75,0.00,,,0.00,weatherlink.com 1.10,2013-12-13 07:25:00,
2013-12-13 02:40:00,13.9,7.0,30.39,SSW,210,5.0,7.0,75,0.00,,,0.00,weatherlink.com 1.10,2013-12-13 07:40:00,
2013-12-13 02:55:00,14.2,7.0,30.38,SSW,200,1.0,9.0,74,0.00,,,0.00,weatherlink.com 1.10,2013-12-13 07:55:00,
2013-12-13 03:10:00,14.3,7.0,30.38,SSE,168,1.0,8.0,74,0.00,,,0.00,weatherlink.com 1.10,2013-12-13 08:10:00,
2013-12-13 03:25:00,14.4,8.0,30.37,SSW,201,4.0,7.0,74,0.00,,,0.00,weatherlink.com 1.10,2013-12-13 08:25:00,
2013-12-13 03:40:00,14.5,8.0,30.38,SW,236,0.0,7.0,75,0.00,,,0.00,weatherlink.com 1.10,2013-12-13 08:40:00,
2013-12-13 03:55:00,14.7,8.0,30.38,SSW,200,3.0,7.0,75,0.00,,,0.00,weatherlink.com 1.10,2013-12-13 08:55:00,
2013-12-13 04:10:00,14.7,8.0,30.38,SW,232,2.0,7.0,76,0.00,,,0.00,weatherlink.com 1.10,2013-12-13 09:10:00,
2013-12-13 04:25:00,14.8,9.0,30.38,East,97,5.0,7.0,76,0.00,,,0.00,weatherlink.com 1.10,2013-12-13 09:25:00,
2013-12-13 04:40:00,14.8,9.0,30.37,SSW,210,1.0,9.0,77,0.00,,,0.00,weatherlink.com 1.10,2013-12-13 09:40:00,
2013-12-13 04:55:00,14.7,9.0,30.38,SSE,150,2.0,5.0,77,0.00,,,0.00,weatherlink.com 1.10,2013-12-13 09:55:00,
2013-12-13 05:10:00,14.7,9.0,30.38,SW,222,2.0,10.0,77,0.00,,,0.00,weatherlink.com 1.10,2013-12-13 10:10:00,
2013-12-13 05:25:00,14.6,9.0,30.37,ENE,63,2.0,7.0,77,0.00,,,0.00,weatherlink.com 1.10,2013-12-13 10:25:00,
2013-12-13 05:40:00,14.6,9.0,30.38,SE,127,4.0,7.0,77,0.00,,,0.00,weatherlink.com 1.10,2013-12-13 10:40:00,
2013-12-13 05:55:00,14.6,9.0,30.39,ESE,116,4.0,10.0,78,0.00,,,0.00,weatherlink.com 1.10,2013-12-13 10:55:00,
2013-12-13 06:10:00,14.7,9.0,30.39,NE,50,5.0,9.0,78,0.00,,,0.00,weatherlink.com 1.10,2013-12-13 11:10:00,
2013-12-13 06:25:00,14.8,9.0,30.39,East,85,5.0,7.0,78,0.00,,,0.00,weatherlink.com 1.10,2013-12-13 11:25:00,
2013-12-13 06:40:00,14.7,9.0,30.39,SW,224,2.0,7.0,78,0.00,,,0.00,weatherlink.com 1.10,2013-12-13 11:40:00,
2013-12-13 06:55:00,14.8,9.0,30.40,ESE,120,4.0,12.0,79,0.00,,,0.00,weatherlink.com 1.10,2013-12-13 11:55:00,
2013-12-13 07:11:00,14.9,10.0,30.40,NNE,28,2.0,9.0,79,0.00,,,0.00,weatherlink.com 1.10,2013-12-13 12:11:00,
2013-12-13 07:26:00,14.8,9.0,30.40,SSW,210,2.0,8.0,79,0.00,,,0.00,weatherlink.com 1.10,2013-12-13 12:26:00,
2013-12-13 07:41:00,14.8,10.0,30.41,SW,228,5.0,10.0,80,0.00,,,0.00,weatherlink.com 1.10,2013-12-13 12:41:00,
2013-12-13 07:56:00,14.9,10.0,30.41,SSW,212,7.0,13.0,81,0.00,,,0.00,weatherlink.com 1.10,2013-12-13 12:56:00,
2013-12-13 08:11:00,15.8,11.0,30.42,ESE,120,5.0,7.0,80,0.00,,,0.00,weatherlink.com 1.10,2013-12-13 13:11:00,
2013-12-13 08:26:00,16.5,11.0,30.42,South,191,6.0,11.0,79,0.00,,,0.00,weatherlink.com 1.10,2013-12-13 13:26:00,
2013-12-13 08:41:00,16.0,10.0,30.43,SSW,201,4.0,10.0,78,0.00,,,0.00,weatherlink.com 1.10,2013-12-13 13:41:00,
2013-12-13 08:56:00,16.5,11.0,30.43,NNW,344,4.0,10.0,79,0.00,,,0.00,weatherlink.com 1.10,2013-12-13 13:56:00,
2013-12-13 09:11:00,16.6,11.0,30.43,South,173,5.0,10.0,80,0.00,,,0.00,weatherlink.com 1.10,2013-12-13 14:11:00,
2013-12-13 09:26:00,16.8,12.0,30.44,SSE,161,2.0,10.0,80,0.00,,,0.00,weatherlink.com 1.10,2013-12-13 14:26:00,
2013-12-13 09:41:00,16.9,12.0,30.44,SSW,195,3.0,12.0,80,0.00,,,0.00,weatherlink.com 1.10,2013-12-13 14:41:00,
2013-12-13 09:56:00,17.1,12.0,30.44,WNW,294,2.0,8.0,80,0.00,,,0.00,weatherlink.com 1.10,2013-12-13 14:56:00,
2013-12-13 10:11:00,17.7,13.0,30.44,WSW,255,3.0,9.0,80,0.00,,,0.00,weatherlink.com 1.10,2013-12-13 15:11:00,
2013-12-13 10:26:00,19.8,14.0,30.44,SW,215,2.0,10.0,77,0.00,,,0.00,weatherlink.com 1.10,2013-12-13 15:26:00,
2013-12-13 10:41:00,20.5,14.0,30.44,WSW,238,6.0,13.0,75,0.00,,,0.00,weatherlink.com 1.10,2013-12-13 15:41:00,
2013-12-13 10:56:00,20.4,13.0,30.43,SSE,165,5.0,9.0,74,0.00,,,0.00,weatherlink.com 1.10,2013-12-13 15:56:00,
2013-12-13 11:11:00,20.5,13.0,30.42,ESE,103,6.0,19.0,74,0.00,,,0.00,weatherlink.com 1.10,2013-12-13 16:11:00,
2013-12-13 11:26:00,20.5,13.0,30.42,SW,221,1.0,14.0,73,0.00,,,0.00,weatherlink.com 1.10,2013-12-13 16:26:00,
2013-12-13 11:41:00,20.6,13.0,30.42,SSW,211,6.0,11.0,73,0.00,,,0.00,weatherlink.com 1.10,2013-12-13 16:41:00,
2013-12-13 11:56:00,20.7,13.0,30.43,North,359,1.0,10.0,73,0.00,,,0.00,weatherlink.com 1.10,2013-12-13 16:56:00,
2013-12-13 12:11:00,21.2,14.0,30.42,SE,143,7.0,10.0,73,0.00,,,0.00,weatherlink.com 1.10,2013-12-13 17:11:00,
2013-12-13 12:26:00,21.9,14.0,30.42,NE,39,5.0,14.0,71,0.00,,,0.00,weatherlink.com 1.10,2013-12-13 17:26:00,
2013-12-13 12:41:00,21.4,14.0,30.42,South,191,5.0,16.0,72,0.00,,,0.00,weatherlink.com 1.10,2013-12-13 17:41:00,
2013-12-13 12:56:00,21.1,14.0,30.42,SSW,210,5.0,12.0,74,0.00,,,0.00,weatherlink.com 1.10,2013-12-13 17:56:00,
2013-12-13 13:11:00,21.3,14.0,30.43,SW,217,7.0,12.0,73,0.00,,,0.00,weatherlink.com 1.10,2013-12-13 18:11:00,
2013-12-13 13:26:00,21.0,13.0,30.43,South,190,1.0,12.0,72,0.00,,,0.00,weatherlink.com 1.10,2013-12-13 18:26:00,
2013-12-13 13:41:00,21.0,14.0,30.43,SW,218,8.0,14.0,74,0.00,,,0.00,weatherlink.com 1.10,2013-12-13 18:41:00,
2013-12-13 13:56:00,20.9,14.0,30.43,SW,214,5.0,10.0,75,0.00,,,0.00,weatherlink.com 1.10,2013-12-13 18:56:00,
2013-12-13 14:11:00,21.0,15.0,30.45,SW,218,5.0,11.0,76,0.00,,,0.00,weatherlink.com 1.10,2013-12-13 19:11:00,
2013-12-13 14:26:00,21.0,15.0,30.45,NE,43,3.0,12.0,77,0.00,,,0.00,weatherlink.com 1.10,2013-12-13 19:26:00,
2013-12-13 14:41:00,20.6,15.0,30.46,SW,214,2.0,10.0,79,0.00,,,0.00,weatherlink.com 1.10,2013-12-13 19:41:00,
2013-12-13 14:56:00,20.4,15.0,30.46,SSW,197,5.0,9.0,78,0.00,,,0.00,weatherlink.com 1.10,2013-12-13 19:56:00,
2013-12-13 15:11:00,20.6,14.0,30.48,SW,225,5.0,14.0,74,0.00,,,0.00,weatherlink.com 1.10,2013-12-13 20:11:00,
2013-12-13 15:26:00,20.6,13.0,30.49,NE,44,3.0,15.0,72,0.00,,,0.00,weatherlink.com 1.10,2013-12-13 20:26:00,
2013-12-13 15:41:00,20.6,13.0,30.49,South,184,10.0,14.0,71,0.00,,,0.00,weatherlink.com 1.10,2013-12-13 20:41:00,
2013-12-13 16:12:00,20.1,12.0,30.50,SW,219,2.0,10.0,72,0.00,,,0.00,weatherlink.com 1.10,2013-12-13 21:12:00,
2013-12-13 16:27:00,19.5,13.0,30.50,SSE,149,0.0,7.0,75,0.00,,,0.00,weatherlink.com 1.10,2013-12-13 21:27:00,
2013-12-13 16:42:00,18.7,14.0,30.52,ESE,118,2.0,5.0,80,0.00,,,0.00,weatherlink.com 1.10,2013-12-13 21:42:00,
2013-12-13 16:57:00,18.2,14.0,30.53,ENE,68,2.0,5.0,82,0.00,,,0.00,weatherlink.com 1.10,2013-12-13 21:57:00,
2013-12-13 17:12:00,17.7,13.0,30.54,SSE,166,5.0,5.0,82,0.00,,,0.00,weatherlink.com 1.10,2013-12-13 22:12:00,
2013-12-13 17:27:00,17.0,12.0,30.55,SW,221,2.0,4.0,82,0.00,,,0.00,weatherlink.com 1.10,2013-12-13 22:27:00,
2013-12-13 17:42:00,16.6,12.0,30.56,ENE,76,3.0,6.0,83,0.00,,,0.00,weatherlink.com 1.10,2013-12-13 22:42:00,
2013-12-13 17:57:00,16.3,13.0,30.57,SSE,163,0.0,4.0,85,0.00,,,0.00,weatherlink.com 1.10,2013-12-13 22:57:00,
2013-12-13 18:12:00,16.1,12.0,30.58,SSE,162,3.0,3.0,85,0.00,,,0.00,weatherlink.com 1.10,2013-12-13 23:12:00,
2013-12-13 18:27:00,15.8,12.0,30.58,SSE,155,2.0,4.0,85,0.00,,,0.00,weatherlink.com 1.10,2013-12-13 23:27:00,
2013-12-13 18:42:00,15.4,11.0,30.59,SW,221,1.0,3.0,84,0.00,,,0.00,weatherlink.com 1.10,2013-12-13 23:42:00,
2013-12-13 18:57:00,15.2,11.0,30.60,SSW,200,2.0,2.0,84,0.00,,,0.00,weatherlink.com 1.10,2013-12-13 23:57:00,
2013-12-13 19:12:00,14.9,11.0,30.61,SW,226,1.0,3.0,83,0.00,,,0.00,weatherlink.com 1.10,2013-12-14 00:12:00,
2013-12-13 19:42:00,14.3,10.0,30.62,SW,219,3.0,5.0,83,0.00,,,0.00,weatherlink.com 1.10,2013-12-14 00:42:00,
2013-12-13 19:57:00,14.1,10.0,30.63,SW,217,2.0,5.0,84,0.00,,,0.00,weatherlink.com 1.10,2013-12-14 00:57:00,
2013-12-13 20:12:00,13.9,10.0,30.64,East,79,2.0,3.0,84,0.00,,,0.00,weatherlink.com 1.10,2013-12-14 01:12:00,
2013-12-13 20:27:00,13.6,10.0,30.64,South,172,3.0,4.0,84,0.00,,,0.00,weatherlink.com 1.10,2013-12-14 01:27:00,
2013-12-13 20:42:00,13.3,9.0,30.64,ESE,121,0.0,4.0,84,0.00,,,0.00,weatherlink.com 1.10,2013-12-14 01:42:00,
2013-12-13 20:57:00,13.2,9.0,30.64,SSE,148,0.0,3.0,84,0.00,,,0.00,weatherlink.com 1.10,2013-12-14 01:57:00,
2013-12-13 21:12:00,13.0,9.0,30.65,NNW,331,1.0,4.0,84,0.00,,,0.00,weatherlink.com 1.10,2013-12-14 02:12:00,
2013-12-13 21:27:00,12.9,9.0,30.65,SW,219,1.0,3.0,84,0.00,,,0.00,weatherlink.com 1.10,2013-12-14 02:27:00,
2013-12-13 21:42:00,12.8,9.0,30.66,South,176,0.0,3.0,83,0.00,,,0.00,weatherlink.com 1.10,2013-12-14 02:42:00,
2013-12-13 21:57:00,12.8,9.0,30.66,SE,146,2.0,3.0,83,0.00,,,0.00,weatherlink.com 1.10,2013-12-14 02:57:00,
2013-12-13 22:12:00,12.7,8.0,30.67,SSW,203,0.0,3.0,82,0.00,,,0.00,weatherlink.com 1.10,2013-12-14 03:12:00,
2013-12-13 22:27:00,12.6,8.0,30.68,SSE,152,1.0,2.0,81,0.00,,,0.00,weatherlink.com 1.10,2013-12-14 03:27:00,
2013-12-13 22:42:00,12.5,8.0,30.69,SE,144,2.0,2.0,81,0.00,,,0.00,weatherlink.com 1.10,2013-12-14 03:42:00,
2013-12-13 22:57:00,12.5,8.0,30.70,NW,311,3.0,5.0,81,0.00,,,0.00,weatherlink.com 1.10,2013-12-14 03:57:00,
2013-12-13 23:12:00,12.4,7.0,30.70,SSW,210,2.0,2.0,80,0.00,,,0.00,weatherlink.com 1.10,2013-12-14 04:12:00,
2013-12-13 23:27:00,12.4,7.0,30.70,SSW,210,0.0,4.0,80,0.00,,,0.00,weatherlink.com 1.10,2013-12-14 04:27:00,
2013-12-13 23:42:00,12.2,7.0,30.70,SSW,195,0.0,3.0,80,0.00,,,0.00,weatherlink.com 1.10,2013-12-14 04:42:00,
2013-12-13 23:57:00,12.2,7.0,30.70,SW,217,0.0,3.0,80,0.00,,,0.00,weatherlink.com 1.10,2013-12-14 04:57:00,